sensor_id;sensor_type;location;lat;lon;timestamp;temperature;humidity
42841;DHT22;28491;46.898;7.660;2022-07-10T00:00:10;16.10;62.60
42841;DHT22;28491;46.898;7.660;2022-07-10T00:02:37;16.10;62.20
42841;DHT22;28491;46.898;7.660;2022-07-10T00:05:04;16.10;62.40
42841;DHT22;28491;46.898;7.660;2022-07-10T00:07:30;15.90;62.90
42841;DHT22;28491;46.898;7.660;2022-07-10T00:09:56;15.90;63.20
42841;DHT22;28491;46.898;7.660;2022-07-10T00:12:22;15.90;63.30
42841;DHT22;28491;46.898;7.660;2022-07-10T00:14:47;15.90;63.40
42841;DHT22;28491;46.898;7.660;2022-07-10T00:17:13;16.00;62.90
42841;DHT22;28491;46.898;7.660;2022-07-10T00:19:38;16.10;63.00
42841;DHT22;28491;46.898;7.660;2022-07-10T00:22:04;16.20;62.80
42841;DHT22;28491;46.898;7.660;2022-07-10T00:24:30;16.10;62.90
42841;DHT22;28491;46.898;7.660;2022-07-10T00:26:56;16.20;62.90
42841;DHT22;28491;46.898;7.660;2022-07-10T00:29:21;16.20;62.60
42841;DHT22;28491;46.898;7.660;2022-07-10T00:31:47;16.20;62.70
42841;DHT22;28491;46.898;7.660;2022-07-10T00:34:13;16.00;63.30
42841;DHT22;28491;46.898;7.660;2022-07-10T00:36:38;15.90;63.90
42841;DHT22;28491;46.898;7.660;2022-07-10T00:39:04;15.90;64.10
42841;DHT22;28491;46.898;7.660;2022-07-10T00:41:29;15.70;64.40
42841;DHT22;28491;46.898;7.660;2022-07-10T00:43:57;15.60;64.70
42841;DHT22;28491;46.898;7.660;2022-07-10T00:46:23;15.70;63.90
42841;DHT22;28491;46.898;7.660;2022-07-10T00:48:50;15.60;64.00
42841;DHT22;28491;46.898;7.660;2022-07-10T00:51:17;15.60;64.40
42841;DHT22;28491;46.898;7.660;2022-07-10T00:53:44;15.60;64.30
42841;DHT22;28491;46.898;7.660;2022-07-10T00:56:10;15.50;64.10
42841;DHT22;28491;46.898;7.660;2022-07-10T00:58:37;15.50;64.30
42841;DHT22;28491;46.898;7.660;2022-07-10T01:01:04;15.50;64.20
42841;DHT22;28491;46.898;7.660;2022-07-10T01:03:30;15.60;64.00
42841;DHT22;28491;46.898;7.660;2022-07-10T01:05:56;15.60;63.80
42841;DHT22;28491;46.898;7.660;2022-07-10T01:08:22;15.60;63.70
42841;DHT22;28491;46.898;7.660;2022-07-10T01:10:48;15.50;63.90
42841;DHT22;28491;46.898;7.660;2022-07-10T01:13:14;15.50;64.00
42841;DHT22;28491;46.898;7.660;2022-07-10T01:15:39;15.40;64.00
42841;DHT22;28491;46.898;7.660;2022-07-10T01:18:05;15.30;64.40
42841;DHT22;28491;46.898;7.660;2022-07-10T01:20:32;15.40;64.20
42841;DHT22;28491;46.898;7.660;2022-07-10T01:22:57;15.40;64.30
42841;DHT22;28491;46.898;7.660;2022-07-10T01:25:23;15.40;64.20
42841;DHT22;28491;46.898;7.660;2022-07-10T01:27:50;15.20;64.50
42841;DHT22;28491;46.898;7.660;2022-07-10T01:30:16;15.20;64.90
42841;DHT22;28491;46.898;7.660;2022-07-10T01:32:41;15.00;65.10
42841;DHT22;28491;46.898;7.660;2022-07-10T01:35:07;14.90;65.40
42841;DHT22;28491;46.898;7.660;2022-07-10T01:37:33;14.80;65.90
42841;DHT22;28491;46.898;7.660;2022-07-10T01:39:59;14.90;65.90
42841;DHT22;28491;46.898;7.660;2022-07-10T01:42:25;15.00;65.60
42841;DHT22;28491;46.898;7.660;2022-07-10T01:44:50;14.90;65.70
42841;DHT22;28491;46.898;7.660;2022-07-10T01:47:16;15.00;65.20
42841;DHT22;28491;46.898;7.660;2022-07-10T01:49:41;15.10;65.20
42841;DHT22;28491;46.898;7.660;2022-07-10T01:52:07;15.00;65.40
42841;DHT22;28491;46.898;7.660;2022-07-10T01:54:32;15.00;65.30
42841;DHT22;28491;46.898;7.660;2022-07-10T01:56:58;15.10;65.60
42841;DHT22;28491;46.898;7.660;2022-07-10T01:59:24;15.00;65.60
42841;DHT22;28491;46.898;7.660;2022-07-10T02:01:49;15.00;65.80
42841;DHT22;28491;46.898;7.660;2022-07-10T02:04:15;14.90;66.10
42841;DHT22;28491;46.898;7.660;2022-07-10T02:06:59;14.90;65.90
42841;DHT22;28491;46.898;7.660;2022-07-10T02:09:24;14.90;65.90
42841;DHT22;28491;46.898;7.660;2022-07-10T02:11:50;14.80;65.90
42841;DHT22;28491;46.898;7.660;2022-07-10T02:14:15;14.80;65.90
42841;DHT22;28491;46.898;7.660;2022-07-10T02:16:41;14.90;65.60
42841;DHT22;28491;46.898;7.660;2022-07-10T02:19:07;14.90;65.40
42841;DHT22;28491;46.898;7.660;2022-07-10T02:21:32;14.80;65.70
42841;DHT22;28491;46.898;7.660;2022-07-10T02:23:58;14.90;65.90
42841;DHT22;28491;46.898;7.660;2022-07-10T02:26:23;14.90;65.70
42841;DHT22;28491;46.898;7.660;2022-07-10T02:28:49;14.90;65.80
42841;DHT22;28491;46.898;7.660;2022-07-10T02:31:14;14.80;65.80
42841;DHT22;28491;46.898;7.660;2022-07-10T02:33:40;14.70;66.00
42841;DHT22;28491;46.898;7.660;2022-07-10T02:36:05;14.70;66.10
42841;DHT22;28491;46.898;7.660;2022-07-10T02:38:31;14.70;66.00
42841;DHT22;28491;46.898;7.660;2022-07-10T02:40:57;14.60;66.30
42841;DHT22;28491;46.898;7.660;2022-07-10T02:43:22;14.60;66.40
42841;DHT22;28491;46.898;7.660;2022-07-10T02:45:48;14.70;66.50
42841;DHT22;28491;46.898;7.660;2022-07-10T02:48:16;14.70;66.30
42841;DHT22;28491;46.898;7.660;2022-07-10T02:50:43;14.70;66.10
42841;DHT22;28491;46.898;7.660;2022-07-10T02:53:09;14.70;66.10
42841;DHT22;28491;46.898;7.660;2022-07-10T02:55:34;14.60;66.50
42841;DHT22;28491;46.898;7.660;2022-07-10T02:58:00;14.60;66.50
42841;DHT22;28491;46.898;7.660;2022-07-10T03:00:26;14.50;66.60
42841;DHT22;28491;46.898;7.660;2022-07-10T03:02:53;14.50;66.90
42841;DHT22;28491;46.898;7.660;2022-07-10T03:05:19;14.40;67.00
42841;DHT22;28491;46.898;7.660;2022-07-10T03:07:45;14.40;67.20
42841;DHT22;28491;46.898;7.660;2022-07-10T03:10:10;14.40;66.80
42841;DHT22;28491;46.898;7.660;2022-07-10T03:12:36;14.50;66.60
42841;DHT22;28491;46.898;7.660;2022-07-10T03:15:03;14.50;66.40
42841;DHT22;28491;46.898;7.660;2022-07-10T03:17:29;14.40;66.90
42841;DHT22;28491;46.898;7.660;2022-07-10T03:19:54;14.40;66.60
42841;DHT22;28491;46.898;7.660;2022-07-10T03:22:20;14.40;66.70
42841;DHT22;28491;46.898;7.660;2022-07-10T03:24:45;14.40;66.50
42841;DHT22;28491;46.898;7.660;2022-07-10T03:27:12;14.30;66.50
42841;DHT22;28491;46.898;7.660;2022-07-10T03:29:39;14.20;67.10
42841;DHT22;28491;46.898;7.660;2022-07-10T03:32:04;14.20;67.30
42841;DHT22;28491;46.898;7.660;2022-07-10T03:34:30;14.20;67.20
42841;DHT22;28491;46.898;7.660;2022-07-10T03:36:58;14.20;66.90
42841;DHT22;28491;46.898;7.660;2022-07-10T03:39:23;14.10;67.10
42841;DHT22;28491;46.898;7.660;2022-07-10T03:41:49;14.10;67.20
42841;DHT22;28491;46.898;7.660;2022-07-10T03:44:14;14.20;67.30
42841;DHT22;28491;46.898;7.660;2022-07-10T03:46:40;14.20;67.40
42841;DHT22;28491;46.898;7.660;2022-07-10T03:49:05;14.20;67.00
42841;DHT22;28491;46.898;7.660;2022-07-10T03:51:31;14.20;67.10
42841;DHT22;28491;46.898;7.660;2022-07-10T03:53:56;14.20;67.00
42841;DHT22;28491;46.898;7.660;2022-07-10T03:56:22;14.20;67.30
42841;DHT22;28491;46.898;7.660;2022-07-10T03:59:06;14.00;67.20
42841;DHT22;28491;46.898;7.660;2022-07-10T04:01:31;14.10;67.50
42841;DHT22;28491;46.898;7.660;2022-07-10T04:03:57;14.00;67.60
42841;DHT22;28491;46.898;7.660;2022-07-10T04:06:23;14.10;67.40
42841;DHT22;28491;46.898;7.660;2022-07-10T04:08:48;14.20;67.40
42841;DHT22;28491;46.898;7.660;2022-07-10T04:11:14;14.20;67.20
42841;DHT22;28491;46.898;7.660;2022-07-10T04:13:39;14.00;67.30
42841;DHT22;28491;46.898;7.660;2022-07-10T04:16:05;14.00;67.50
42841;DHT22;28491;46.898;7.660;2022-07-10T04:18:31;14.00;67.50
42841;DHT22;28491;46.898;7.660;2022-07-10T04:20:56;14.20;67.50
42841;DHT22;28491;46.898;7.660;2022-07-10T04:23:22;14.10;67.30
42841;DHT22;28491;46.898;7.660;2022-07-10T04:25:47;14.20;67.20
42841;DHT22;28491;46.898;7.660;2022-07-10T04:28:13;14.20;67.10
42841;DHT22;28491;46.898;7.660;2022-07-10T04:30:38;14.30;66.90
42841;DHT22;28491;46.898;7.660;2022-07-10T04:33:04;14.30;67.40
42841;DHT22;28491;46.898;7.660;2022-07-10T04:35:29;14.30;67.30
42841;DHT22;28491;46.898;7.660;2022-07-10T04:37:55;14.50;66.80
42841;DHT22;28491;46.898;7.660;2022-07-10T04:40:20;14.50;66.60
42841;DHT22;28491;46.898;7.660;2022-07-10T04:42:46;14.60;66.90
42841;DHT22;28491;46.898;7.660;2022-07-10T04:45:11;14.70;66.60
42841;DHT22;28491;46.898;7.660;2022-07-10T04:47:37;14.90;66.10
42841;DHT22;28491;46.898;7.660;2022-07-10T04:50:02;15.00;66.50
42841;DHT22;28491;46.898;7.660;2022-07-10T04:52:28;15.10;65.80
42841;DHT22;28491;46.898;7.660;2022-07-10T04:54:54;15.10;65.70
42841;DHT22;28491;46.898;7.660;2022-07-10T04:57:19;15.10;65.70
42841;DHT22;28491;46.898;7.660;2022-07-10T04:59:45;15.20;65.70
42841;DHT22;28491;46.898;7.660;2022-07-10T05:02:10;15.20;65.50
42841;DHT22;28491;46.898;7.660;2022-07-10T05:04:36;15.40;65.40
42841;DHT22;28491;46.898;7.660;2022-07-10T05:07:01;15.40;65.50
42841;DHT22;28491;46.898;7.660;2022-07-10T05:09:27;15.40;65.50
42841;DHT22;28491;46.898;7.660;2022-07-10T05:11:52;15.50;65.40
42841;DHT22;28491;46.898;7.660;2022-07-10T05:14:18;15.60;64.90
42841;DHT22;28491;46.898;7.660;2022-07-10T05:16:43;15.70;65.10
42841;DHT22;28491;46.898;7.660;2022-07-10T05:19:09;15.70;65.30
42841;DHT22;28491;46.898;7.660;2022-07-10T05:21:34;15.80;65.30
42841;DHT22;28491;46.898;7.660;2022-07-10T05:24:00;15.70;65.30
42841;DHT22;28491;46.898;7.660;2022-07-10T05:26:25;15.70;65.20
42841;DHT22;28491;46.898;7.660;2022-07-10T05:28:51;15.70;65.40
42841;DHT22;28491;46.898;7.660;2022-07-10T05:31:16;15.70;65.50
42841;DHT22;28491;46.898;7.660;2022-07-10T05:33:42;15.70;65.10
42841;DHT22;28491;46.898;7.660;2022-07-10T05:36:09;15.60;65.70
42841;DHT22;28491;46.898;7.660;2022-07-10T05:38:34;15.60;65.50
42841;DHT22;28491;46.898;7.660;2022-07-10T05:41:00;15.50;66.20
42841;DHT22;28491;46.898;7.660;2022-07-10T05:43:25;15.60;66.40
42841;DHT22;28491;46.898;7.660;2022-07-10T05:45:51;15.90;66.20
42841;DHT22;28491;46.898;7.660;2022-07-10T05:48:16;16.40;65.70
42841;DHT22;28491;46.898;7.660;2022-07-10T05:50:42;16.80;64.80
42841;DHT22;28491;46.898;7.660;2022-07-10T05:53:07;17.30;63.70
42841;DHT22;28491;46.898;7.660;2022-07-10T05:55:33;17.50;63.50
42841;DHT22;28491;46.898;7.660;2022-07-10T05:57:58;17.80;62.60
42841;DHT22;28491;46.898;7.660;2022-07-10T06:00:24;18.10;62.20
42841;DHT22;28491;46.898;7.660;2022-07-10T06:02:50;18.40;61.80
42841;DHT22;28491;46.898;7.660;2022-07-10T06:05:15;18.80;61.50
42841;DHT22;28491;46.898;7.660;2022-07-10T06:07:41;19.30;60.90
42841;DHT22;28491;46.898;7.660;2022-07-10T06:10:07;19.80;60.60
42841;DHT22;28491;46.898;7.660;2022-07-10T06:12:32;20.40;55.30
42841;DHT22;28491;46.898;7.660;2022-07-10T06:14:58;20.80;52.70
42841;DHT22;28491;46.898;7.660;2022-07-10T06:17:24;21.20;50.70
42841;DHT22;28491;46.898;7.660;2022-07-10T06:19:49;21.80;44.60
42841;DHT22;28491;46.898;7.660;2022-07-10T06:22:15;22.10;43.30
42841;DHT22;28491;46.898;7.660;2022-07-10T06:25:06;22.50;40.70
42841;DHT22;28491;46.898;7.660;2022-07-10T06:27:32;22.80;38.30
42841;DHT22;28491;46.898;7.660;2022-07-10T06:29:58;23.10;37.80
42841;DHT22;28491;46.898;7.660;2022-07-10T06:32:24;23.60;35.60
42841;DHT22;28491;46.898;7.660;2022-07-10T06:34:51;23.90;34.30
42841;DHT22;28491;46.898;7.660;2022-07-10T06:37:17;24.00;35.20
42841;DHT22;28491;46.898;7.660;2022-07-10T06:39:42;24.10;34.50
42841;DHT22;28491;46.898;7.660;2022-07-10T06:42:08;24.50;34.20
42841;DHT22;28491;46.898;7.660;2022-07-10T06:44:34;24.90;33.10
42841;DHT22;28491;46.898;7.660;2022-07-10T06:46:59;25.00;34.00
42841;DHT22;28491;46.898;7.660;2022-07-10T06:49:46;25.50;34.00
42841;DHT22;28491;46.898;7.660;2022-07-10T06:52:13;25.50;33.50
42841;DHT22;28491;46.898;7.660;2022-07-10T06:54:39;25.30;34.00
42841;DHT22;28491;46.898;7.660;2022-07-10T06:57:06;25.60;33.20
42841;DHT22;28491;46.898;7.660;2022-07-10T06:59:32;25.70;34.80
42841;DHT22;28491;46.898;7.660;2022-07-10T07:01:57;26.00;35.50
42841;DHT22;28491;46.898;7.660;2022-07-10T07:04:23;26.30;34.90
42841;DHT22;28491;46.898;7.660;2022-07-10T07:06:48;25.90;33.80
42841;DHT22;28491;46.898;7.660;2022-07-10T07:09:14;26.20;34.90
42841;DHT22;28491;46.898;7.660;2022-07-10T07:11:39;26.70;34.30
42841;DHT22;28491;46.898;7.660;2022-07-10T07:14:05;27.10;33.30
42841;DHT22;28491;46.898;7.660;2022-07-10T07:16:30;27.00;34.30
42841;DHT22;28491;46.898;7.660;2022-07-10T07:19:10;27.00;33.10
42841;DHT22;28491;46.898;7.660;2022-07-10T07:21:37;26.40;32.80
42841;DHT22;28491;46.898;7.660;2022-07-10T07:24:21;26.70;33.50
42841;DHT22;28491;46.898;7.660;2022-07-10T07:26:47;26.90;33.60
42841;DHT22;28491;46.898;7.660;2022-07-10T07:29:14;26.90;34.60
42841;DHT22;28491;46.898;7.660;2022-07-10T07:31:39;27.30;35.60
42841;DHT22;28491;46.898;7.660;2022-07-10T07:34:05;27.70;35.30
42841;DHT22;28491;46.898;7.660;2022-07-10T07:36:31;27.90;33.70
42841;DHT22;28491;46.898;7.660;2022-07-10T07:38:56;27.80;32.10
42841;DHT22;28491;46.898;7.660;2022-07-10T07:41:22;28.20;32.60
42841;DHT22;28491;46.898;7.660;2022-07-10T07:43:51;28.00;33.80
42841;DHT22;28491;46.898;7.660;2022-07-10T07:46:18;27.70;29.80
42841;DHT22;28491;46.898;7.660;2022-07-10T07:48:43;28.10;33.60
42841;DHT22;28491;46.898;7.660;2022-07-10T07:51:09;28.60;32.80
42841;DHT22;28491;46.898;7.660;2022-07-10T07:53:35;28.60;34.20
42841;DHT22;28491;46.898;7.660;2022-07-10T07:56:00;28.90;33.90
42841;DHT22;28491;46.898;7.660;2022-07-10T07:58:26;29.10;34.30
42841;DHT22;28491;46.898;7.660;2022-07-10T08:00:51;29.20;33.40
42841;DHT22;28491;46.898;7.660;2022-07-10T08:03:17;29.50;34.00
42841;DHT22;28491;46.898;7.660;2022-07-10T08:05:43;29.40;34.10
42841;DHT22;28491;46.898;7.660;2022-07-10T08:08:08;29.30;32.50
42841;DHT22;28491;46.898;7.660;2022-07-10T08:10:36;29.60;33.10
42841;DHT22;28491;46.898;7.660;2022-07-10T08:13:02;30.00;33.10
42841;DHT22;28491;46.898;7.660;2022-07-10T08:15:28;30.00;33.90
42841;DHT22;28491;46.898;7.660;2022-07-10T08:17:56;29.00;32.40
42841;DHT22;28491;46.898;7.660;2022-07-10T08:20:22;29.00;32.60
42841;DHT22;28491;46.898;7.660;2022-07-10T08:22:48;29.20;33.00
42841;DHT22;28491;46.898;7.660;2022-07-10T08:25:14;29.50;33.10
42841;DHT22;28491;46.898;7.660;2022-07-10T08:27:40;30.00;35.60
42841;DHT22;28491;46.898;7.660;2022-07-10T08:30:07;30.20;34.90
42841;DHT22;28491;46.898;7.660;2022-07-10T08:32:40;30.10;34.40
42841;DHT22;28491;46.898;7.660;2022-07-10T08:35:06;29.60;31.90
42841;DHT22;28491;46.898;7.660;2022-07-10T08:37:43;29.00;34.20
42841;DHT22;28491;46.898;7.660;2022-07-10T08:40:09;28.90;34.10
42841;DHT22;28491;46.898;7.660;2022-07-10T08:42:35;28.90;32.70
42841;DHT22;28491;46.898;7.660;2022-07-10T08:45:01;29.10;34.30
42841;DHT22;28491;46.898;7.660;2022-07-10T08:47:27;28.80;33.40
42841;DHT22;28491;46.898;7.660;2022-07-10T08:49:57;28.80;33.50
42841;DHT22;28491;46.898;7.660;2022-07-10T08:52:28;28.70;35.60
42841;DHT22;28491;46.898;7.660;2022-07-10T08:54:57;28.80;34.00
42841;DHT22;28491;46.898;7.660;2022-07-10T08:57:23;28.60;34.70
42841;DHT22;28491;46.898;7.660;2022-07-10T08:59:49;29.20;35.10
42841;DHT22;28491;46.898;7.660;2022-07-10T09:02:15;29.40;34.60
42841;DHT22;28491;46.898;7.660;2022-07-10T09:04:41;29.30;35.00
42841;DHT22;28491;46.898;7.660;2022-07-10T09:07:07;29.20;35.60
42841;DHT22;28491;46.898;7.660;2022-07-10T09:09:51;29.40;35.40
42841;DHT22;28491;46.898;7.660;2022-07-10T09:12:16;29.30;36.90
42841;DHT22;28491;46.898;7.660;2022-07-10T09:14:42;29.80;37.00
42841;DHT22;28491;46.898;7.660;2022-07-10T09:17:07;29.90;35.90
42841;DHT22;28491;46.898;7.660;2022-07-10T09:19:34;30.30;36.30
42841;DHT22;28491;46.898;7.660;2022-07-10T09:22:05;29.80;35.50
42841;DHT22;28491;46.898;7.660;2022-07-10T09:24:42;29.70;34.10
42841;DHT22;28491;46.898;7.660;2022-07-10T09:27:08;29.20;32.80
42841;DHT22;28491;46.898;7.660;2022-07-10T09:29:51;29.20;34.50
42841;DHT22;28491;46.898;7.660;2022-07-10T09:32:22;28.80;34.00
42841;DHT22;28491;46.898;7.660;2022-07-10T09:34:49;29.30;35.60
42841;DHT22;28491;46.898;7.660;2022-07-10T09:37:24;30.10;36.20
42841;DHT22;28491;46.898;7.660;2022-07-10T09:40:01;30.70;35.30
42841;DHT22;28491;46.898;7.660;2022-07-10T09:42:39;30.70;34.70
42841;DHT22;28491;46.898;7.660;2022-07-10T09:47:55;30.00;34.40
42841;DHT22;28491;46.898;7.660;2022-07-10T09:50:26;30.00;34.90
42841;DHT22;28491;46.898;7.660;2022-07-10T09:52:56;29.90;35.20
42841;DHT22;28491;46.898;7.660;2022-07-10T09:55:24;30.00;34.70
42841;DHT22;28491;46.898;7.660;2022-07-10T09:57:59;30.10;35.00
42841;DHT22;28491;46.898;7.660;2022-07-10T10:00:28;29.60;33.30
42841;DHT22;28491;46.898;7.660;2022-07-10T10:02:59;30.00;35.40
42841;DHT22;28491;46.898;7.660;2022-07-10T10:05:45;29.30;30.50
42841;DHT22;28491;46.898;7.660;2022-07-10T10:08:20;29.60;33.40
42841;DHT22;28491;46.898;7.660;2022-07-10T10:10:48;29.70;34.60
42841;DHT22;28491;46.898;7.660;2022-07-10T10:13:19;29.40;33.70
42841;DHT22;28491;46.898;7.660;2022-07-10T10:15:50;29.40;34.90
42841;DHT22;28491;46.898;7.660;2022-07-10T10:18:21;29.40;34.30
42841;DHT22;28491;46.898;7.660;2022-07-10T10:20:48;29.00;32.90
42841;DHT22;28491;46.898;7.660;2022-07-10T10:23:16;28.80;34.40
42841;DHT22;28491;46.898;7.660;2022-07-10T10:25:46;29.30;36.00
42841;DHT22;28491;46.898;7.660;2022-07-10T10:28:13;29.50;34.80
42841;DHT22;28491;46.898;7.660;2022-07-10T10:30:41;29.40;33.70
42841;DHT22;28491;46.898;7.660;2022-07-10T10:36:03;29.30;36.60
42841;DHT22;28491;46.898;7.660;2022-07-10T10:41:29;29.70;35.00
42841;DHT22;28491;46.898;7.660;2022-07-10T10:46:35;29.40;36.30
42841;DHT22;28491;46.898;7.660;2022-07-10T10:49:05;29.10;38.10
42841;DHT22;28491;46.898;7.660;2022-07-10T10:54:22;29.50;34.10
42841;DHT22;28491;46.898;7.660;2022-07-10T10:57:13;28.30;33.90
42841;DHT22;28491;46.898;7.660;2022-07-10T10:59:52;27.50;31.80
42841;DHT22;28491;46.898;7.660;2022-07-10T11:02:37;28.20;36.50
42841;DHT22;28491;46.898;7.660;2022-07-10T11:07:58;27.40;35.70
42841;DHT22;28491;46.898;7.660;2022-07-10T11:10:40;28.20;36.80
42841;DHT22;28491;46.898;7.660;2022-07-10T11:13:12;28.70;35.40
42841;DHT22;28491;46.898;7.660;2022-07-10T11:15:41;28.10;33.90
42841;DHT22;28491;46.898;7.660;2022-07-10T11:18:12;28.20;35.00
42841;DHT22;28491;46.898;7.660;2022-07-10T11:20:42;28.30;34.00
42841;DHT22;28491;46.898;7.660;2022-07-10T11:26:08;27.60;33.60
42841;DHT22;28491;46.898;7.660;2022-07-10T11:28:51;26.90;33.70
42841;DHT22;28491;46.898;7.660;2022-07-10T11:31:21;27.40;36.90
42841;DHT22;28491;46.898;7.660;2022-07-10T11:33:49;27.90;35.70
42841;DHT22;28491;46.898;7.660;2022-07-10T11:36:20;27.50;34.00
42841;DHT22;28491;46.898;7.660;2022-07-10T11:38:47;27.50;34.60
42841;DHT22;28491;46.898;7.660;2022-07-10T11:41:19;27.40;33.60
42841;DHT22;28491;46.898;7.660;2022-07-10T11:46:16;27.60;34.60
42841;DHT22;28491;46.898;7.660;2022-07-10T11:48:42;28.10;34.40
42841;DHT22;28491;46.898;7.660;2022-07-10T11:51:30;28.30;35.10
42841;DHT22;28491;46.898;7.660;2022-07-10T11:54:04;28.40;35.60
42841;DHT22;28491;46.898;7.660;2022-07-10T11:56:32;28.10;35.30
42841;DHT22;28491;46.898;7.660;2022-07-10T11:59:03;27.80;34.00
42841;DHT22;28491;46.898;7.660;2022-07-10T12:01:33;27.80;35.00
42841;DHT22;28491;46.898;7.660;2022-07-10T12:04:01;28.10;34.80
42841;DHT22;28491;46.898;7.660;2022-07-10T12:06:29;28.20;35.30
42841;DHT22;28491;46.898;7.660;2022-07-10T12:08:55;28.10;34.50
42841;DHT22;28491;46.898;7.660;2022-07-10T12:11:21;27.80;34.40
42841;DHT22;28491;46.898;7.660;2022-07-10T12:13:50;27.60;33.10
42841;DHT22;28491;46.898;7.660;2022-07-10T12:16:16;27.80;35.20
42841;DHT22;28491;46.898;7.660;2022-07-10T12:18:42;27.90;32.60
42841;DHT22;28491;46.898;7.660;2022-07-10T12:21:09;28.30;36.10
42841;DHT22;28491;46.898;7.660;2022-07-10T12:23:35;28.10;34.80
42841;DHT22;28491;46.898;7.660;2022-07-10T12:26:04;28.20;35.80
42841;DHT22;28491;46.898;7.660;2022-07-10T12:28:31;28.70;36.50
42841;DHT22;28491;46.898;7.660;2022-07-10T12:31:20;28.40;35.70
42841;DHT22;28491;46.898;7.660;2022-07-10T12:33:53;27.80;33.90
42841;DHT22;28491;46.898;7.660;2022-07-10T12:36:20;27.70;33.40
42841;DHT22;28491;46.898;7.660;2022-07-10T12:38:53;28.10;35.60
42841;DHT22;28491;46.898;7.660;2022-07-10T12:41:20;28.10;34.10
42841;DHT22;28491;46.898;7.660;2022-07-10T12:43:50;27.50;33.60
42841;DHT22;28491;46.898;7.660;2022-07-10T12:46:16;27.30;36.50
42841;DHT22;28491;46.898;7.660;2022-07-10T12:48:43;27.30;34.50
42841;DHT22;28491;46.898;7.660;2022-07-10T12:51:23;27.40;37.40
42841;DHT22;28491;46.898;7.660;2022-07-10T12:53:50;27.50;35.20
42841;DHT22;28491;46.898;7.660;2022-07-10T12:56:35;27.70;37.20
42841;DHT22;28491;46.898;7.660;2022-07-10T12:59:03;27.90;36.70
42841;DHT22;28491;46.898;7.660;2022-07-10T13:01:40;27.60;34.10
42841;DHT22;28491;46.898;7.660;2022-07-10T13:04:06;27.40;34.70
42841;DHT22;28491;46.898;7.660;2022-07-10T13:06:34;27.50;36.80
42841;DHT22;28491;46.898;7.660;2022-07-10T13:09:02;27.70;36.20
42841;DHT22;28491;46.898;7.660;2022-07-10T13:11:28;27.70;36.60
42841;DHT22;28491;46.898;7.660;2022-07-10T13:13:54;28.10;37.30
42841;DHT22;28491;46.898;7.660;2022-07-10T13:16:21;28.30;34.90
42841;DHT22;28491;46.898;7.660;2022-07-10T13:18:47;27.90;36.70
42841;DHT22;28491;46.898;7.660;2022-07-10T13:21:12;27.60;38.00
42841;DHT22;28491;46.898;7.660;2022-07-10T13:23:38;27.30;34.70
42841;DHT22;28491;46.898;7.660;2022-07-10T13:26:05;27.10;34.80
42841;DHT22;28491;46.898;7.660;2022-07-10T13:28:33;26.90;36.70
42841;DHT22;28491;46.898;7.660;2022-07-10T13:30:59;27.20;34.30
42841;DHT22;28491;46.898;7.660;2022-07-10T13:33:24;26.50;33.80
42841;DHT22;28491;46.898;7.660;2022-07-10T13:35:51;26.50;34.80
42841;DHT22;28491;46.898;7.660;2022-07-10T13:38:17;26.40;32.80
42841;DHT22;28491;46.898;7.660;2022-07-10T13:40:45;26.40;34.90
42841;DHT22;28491;46.898;7.660;2022-07-10T13:43:13;26.60;35.70
42841;DHT22;28491;46.898;7.660;2022-07-10T13:45:39;26.60;35.00
42841;DHT22;28491;46.898;7.660;2022-07-10T13:48:11;26.60;35.20
42841;DHT22;28491;46.898;7.660;2022-07-10T13:50:38;26.90;36.70
42841;DHT22;28491;46.898;7.660;2022-07-10T13:53:04;26.90;35.20
42841;DHT22;28491;46.898;7.660;2022-07-10T13:55:30;26.80;34.80
42841;DHT22;28491;46.898;7.660;2022-07-10T13:57:56;26.90;34.90
42841;DHT22;28491;46.898;7.660;2022-07-10T14:00:21;27.00;35.00
42841;DHT22;28491;46.898;7.660;2022-07-10T14:02:47;26.90;34.70
42841;DHT22;28491;46.898;7.660;2022-07-10T14:05:12;27.00;35.80
42841;DHT22;28491;46.898;7.660;2022-07-10T14:07:38;27.20;36.30
42841;DHT22;28491;46.898;7.660;2022-07-10T14:10:04;26.90;34.10
42841;DHT22;28491;46.898;7.660;2022-07-10T14:12:31;26.90;37.30
42841;DHT22;28491;46.898;7.660;2022-07-10T14:14:57;26.80;35.50
42841;DHT22;28491;46.898;7.660;2022-07-10T14:17:23;26.70;33.90
42841;DHT22;28491;46.898;7.660;2022-07-10T14:19:49;26.90;36.40
42841;DHT22;28491;46.898;7.660;2022-07-10T14:22:15;26.60;33.70
42841;DHT22;28491;46.898;7.660;2022-07-10T14:24:41;26.50;33.90
42841;DHT22;28491;46.898;7.660;2022-07-10T14:27:07;26.40;34.90
42841;DHT22;28491;46.898;7.660;2022-07-10T14:29:32;26.20;35.40
42841;DHT22;28491;46.898;7.660;2022-07-10T14:31:58;26.50;35.50
42841;DHT22;28491;46.898;7.660;2022-07-10T14:34:24;26.20;34.40
42841;DHT22;28491;46.898;7.660;2022-07-10T14:36:50;26.50;34.70
42841;DHT22;28491;46.898;7.660;2022-07-10T14:39:16;26.50;35.60
42841;DHT22;28491;46.898;7.660;2022-07-10T14:41:41;26.40;35.50
42841;DHT22;28491;46.898;7.660;2022-07-10T14:44:07;26.10;34.00
42841;DHT22;28491;46.898;7.660;2022-07-10T14:46:33;25.60;33.10
42841;DHT22;28491;46.898;7.660;2022-07-10T14:48:59;25.70;34.60
42841;DHT22;28491;46.898;7.660;2022-07-10T14:51:24;25.90;36.20
42841;DHT22;28491;46.898;7.660;2022-07-10T14:53:50;25.80;34.20
42841;DHT22;28491;46.898;7.660;2022-07-10T14:56:16;25.90;35.40
42841;DHT22;28491;46.898;7.660;2022-07-10T14:58:42;25.70;32.80
42841;DHT22;28491;46.898;7.660;2022-07-10T15:01:08;25.40;33.10
42841;DHT22;28491;46.898;7.660;2022-07-10T15:03:34;25.50;37.00
42841;DHT22;28491;46.898;7.660;2022-07-10T15:05:59;25.60;34.70
42841;DHT22;28491;46.898;7.660;2022-07-10T15:08:25;25.60;34.10
42841;DHT22;28491;46.898;7.660;2022-07-10T15:10:51;25.30;33.40
42841;DHT22;28491;46.898;7.660;2022-07-10T15:13:16;25.70;35.60
42841;DHT22;28491;46.898;7.660;2022-07-10T15:15:42;25.60;34.00
42841;DHT22;28491;46.898;7.660;2022-07-10T15:18:08;25.60;35.80
42841;DHT22;28491;46.898;7.660;2022-07-10T15:20:34;25.60;35.60
42841;DHT22;28491;46.898;7.660;2022-07-10T15:23:00;25.50;33.20
42841;DHT22;28491;46.898;7.660;2022-07-10T15:25:26;25.70;33.80
42841;DHT22;28491;46.898;7.660;2022-07-10T15:27:52;25.40;34.10
42841;DHT22;28491;46.898;7.660;2022-07-10T15:30:18;25.10;32.70
42841;DHT22;28491;46.898;7.660;2022-07-10T15:32:43;25.10;33.30
42841;DHT22;28491;46.898;7.660;2022-07-10T15:35:10;25.20;32.80
42841;DHT22;28491;46.898;7.660;2022-07-10T15:37:35;24.90;32.00
42841;DHT22;28491;46.898;7.660;2022-07-10T15:40:01;24.50;32.10
42841;DHT22;28491;46.898;7.660;2022-07-10T15:42:27;24.70;33.30
42841;DHT22;28491;46.898;7.660;2022-07-10T15:44:53;24.80;32.90
42841;DHT22;28491;46.898;7.660;2022-07-10T15:47:18;24.70;32.50
42841;DHT22;28491;46.898;7.660;2022-07-10T15:49:44;24.70;31.50
42841;DHT22;28491;46.898;7.660;2022-07-10T15:52:10;24.80;32.00